Date,TemperatureHighF,TemperatureAvgF,TemperatureLowF,DewpointHighF,DewpointAvgF,DewpointLowF,HumidityHigh,HumidityAvg,HumidityLow,PressureMaxIn,PressureMinIn,WindSpeedMaxMPH,WindSpeedAvgMPH,GustSpeedMaxMPH,PrecipitationSumIn
2013-9-1,90.0,79.9,71.0,-99.9,-99.9,-99.9,0,0,100,0.00,40.00,7,3,11,0.00
2013-9-2,84.0,72.7,63.0,-99.9,-99.9,-99.9,0,0,100,0.00,40.00,12,5,16,0.00
2013-9-3,85.0,69.9,56.0,-99.9,-99.9,-99.9,0,0,100,0.00,40.00,9,3,14,0.00
2013-9-4,92.0,73.0,56.0,-99.9,-99.9,-99.9,0,0,100,0.00,40.00,6,2,8,0.00
2013-9-5,88.0,76.3,63.0,-99.9,-99.9,-99.9,0,0,100,0.00,40.00,7,2,11,0.00
2013-9-6,87.0,76.1,64.0,-99.9,-99.9,-99.9,0,0,100,0.00,40.00,11,4,14,0.00
2013-9-7,96.0,80.0,66.0,-99.9,-99.9,-99.9,0,0,100,0.00,40.00,9,4,17,0.00
2013-9-8,88.0,82.5,75.0,-99.9,-99.9,-99.9,0,0,100,0.00,40.00,16,7,21,0.00
2013-9-9,100.0,87.0,75.0,-99.9,-99.9,-99.9,0,0,100,0.00,40.00,11,6,22,0.00
2013-9-10,96.0,86.0,76.0,-99.9,-99.9,-99.9,0,0,100,0.00,40.00,9,4,18,0.00
2013-9-11,97.0,83.4,75.0,-99.9,-99.9,-99.9,0,0,100,0.00,40.00,11,3,17,0.04
2013-9-12,86.0,74.5,66.0,-99.9,-99.9,-99.9,0,0,100,0.00,40.00,12,5,18,0.69
2013-9-13,75.0,65.7,56.0,-99.9,-99.9,-99.9,0,0,100,0.00,40.00,9,5,13,0.01
2013-9-14,73.0,62.3,52.0,-99.9,-99.9,-99.9,0,0,100,0.00,40.00,8,5,11,0.00
2013-9-15,70.0,65.3,62.0,-99.9,-99.9,-99.9,0,0,100,0.00,40.00,16,5,21,0.11
2013-9-16,69.0,62.9,57.0,-99.9,-99.9,-99.9,0,0,100,0.00,40.00,9,6,16,0.03
2013-9-17,67.0,61.2,54.0,-99.9,-99.9,-99.9,0,0,100,0.00,40.00,8,4,11,0.00
2013-9-18,78.0,66.2,62.0,-99.9,-99.9,-99.9,0,0,100,0.00,40.00,9,3,11,0.00
2013-9-19,93.0,80.4,68.0,-99.9,-99.9,-99.9,0,0,100,0.00,40.00,14,6,19,1.82
2013-9-20,72.0,66.8,57.0,-99.9,-99.9,-99.9,0,0,100,0.00,40.00,8,4,13,1.82
2013-9-21,74.0,60.5,51.0,-99.9,-99.9,-99.9,0,0,100,0.00,40.00,12,4,16,0.00
2013-9-22,75.0,61.5,48.0,-99.9,-99.9,-99.9,0,0,100,0.00,40.00,6,2,8,0.00
2013-9-23,75.0,63.5,51.0,-99.9,-99.9,-99.9,0,0,100,0.00,40.00,13,5,17,0.00
2013-9-24,77.0,66.7,56.0,-99.9,-99.9,-99.9,0,0,100,0.00,40.00,12,5,16,0.00
2013-9-25,81.0,69.8,60.0,-99.9,-99.9,-99.9,0,0,100,0.00,40.00,6,3,11,0.00
2013-9-26,81.0,70.6,60.0,-99.9,-99.9,-99.9,0,0,100,0.00,40.00,11,4,14,0.00
2013-9-27,81.0,72.0,64.0,-99.9,-99.9,-99.9,0,0,100,0.00,40.00,12,6,16,0.00
2013-9-28,75.0,67.7,58.0,-99.9,-99.9,-99.9,0,0,100,0.00,40.00,17,8,23,0.26
2013-9-29,80.0,60.9,50.0,-99.9,-99.9,-99.9,0,0,100,0.00,40.00,3,1,5,0.00
2013-9-30,77.0,63.1,50.0,-99.9,-99.9,-99.9,0,0,100,0.00,40.00,14,4,18,0.00